HOURLY OBS INDEX

018

Western Agricultural

CEDUNA AMO

Site: 018012
Alt: 15.3m
2km E of CEDUNA


  Time     Wind        Temp  DP   Baro     Rain since   Rain past  Vis(m), Cloud(base in m), Weather
  local        km/h                         9am  last   hr   10m    
Mon 19:30  SSE 20/ 26  20.8 16.6  1014.9    0.0   0.0   0.0   0.0   10000 
Mon 19:30  SSE 20/ 26  20.8 16.6  1014.9    0.0   0.0  ----   0.0   10000 
Mon 20:00  SSE 17/ 24  21.8 15.2  1014.9    0.0   0.0   0.0   0.0   10000 
Mon 20:00  SSE 17/ 24  21.8 15.2  1014.9    0.0   0.0  ----   0.0   10000 
Mon 20:30  SSE 20/ 30  20.5 15.5  1014.7    0.0   0.0   0.0   0.0   10000 
Mon 20:30  SSE 20/ 30  20.5 15.5  1014.7    0.0   0.0  ----   0.0   10000 
Mon 21:00  SSE 13/ 15  19.8 15.7  1014.9    0.0   0.0   0.0   0.0   10000 
Mon 21:30    S 13/ 15  19.0 15.9  1014.9    0.0   0.0   0.0   0.0   10000 
Mon 22:00  SSE 15/ 19  18.3 15.9  1014.7    0.0   0.0   0.0   0.0   10000 
Mon 22:30  SSE 15/ 19  17.9 15.5  1014.9    0.0   0.0   0.0   0.0   10000 
Mon 23:00   SE 11/ 13  17.2 14.8  1015.1    0.0   0.0   0.0   0.0   10000 
Mon 23:30   SE 15/ 20  17.1 14.7  1014.6    0.0   0.0   0.0   0.0   10000 
Tue 00:00   SE 22/ 30  17.6 15.0  1013.8    0.0   0.0   0.0   0.0   10000 
Tue 00:30   SE 19/ 22  16.9 14.4  1013.7    0.0   0.0   0.0   0.0   10000 
Tue 01:00  ESE 15/ 19  16.4 13.1  1013.3    0.0   0.0   0.0   0.0   10000 

CLEVE AERODROME

Site: 018116
Alt: 175.0m
125km SW of WHYALLA


  Time     Wind        Temp  DP   Baro     Rain since   Rain past  Vis(m), Cloud(base in m), Weather
  local        km/h                         9am  last   hr   10m    
Mon 19:30   SE 24/ 32  19.2 11.5  1017.2    0.0   0.0   0.0   0.0   ----- 
Mon 19:30   SE 24/ 32  19.2 11.5  1017.2    0.0   0.0  ----   0.0   ----- 
Mon 20:00   SE 26/ 33  19.1 11.2  1017.5    0.0   0.0   0.0   0.0   ----- 
Mon 20:00   SE 26/ 33  19.1 11.2  1017.5    0.0   0.0  ----   0.0   ----- 
Mon 20:30   SE 26/ 32  17.9 11.7  1017.5    0.0   0.0   0.0   0.0   ----- 
Mon 20:30   SE 26/ 32  17.9 11.7  1017.5    0.0   0.0  ----   0.0   ----- 
Mon 21:00  ESE 19/ 24  17.0 11.9  1017.6    0.0   0.0   0.0   0.0   ----- 
Mon 21:30  ESE 17/ 22  16.4 12.2  1017.6    0.0   0.0   0.0   0.0   ----- 
Mon 22:00  ESE 13/ 17  15.5 12.1  1017.3    0.0   0.0   0.0   0.0   ----- 
Mon 22:30    E 13/ 17  14.9 11.9  1017.3    0.0   0.0   0.0   0.0   ----- 
Mon 23:00    E 11/ 13  14.3 12.0  1017.1    0.0   0.0   0.0   0.0   ----- 
Mon 23:30    E 11/ 13  13.8 11.8  1017.0    0.0   0.0   0.0   0.0   ----- 
Tue 00:00    E 13/ 15  13.7 11.8  1016.8    0.0   0.0   0.0   0.0   ----- 
Tue 00:30    E 11/ 13  13.1 11.7  1016.6    0.0   0.0   0.0   0.0   ----- 
Tue 01:00    E 13/ 15  13.3 12.0  1016.2    0.0   0.0   0.0   0.0   ----- 

COFFIN BAY (POINT AVOID)

Site: 018230
Alt: 35.0m
48km WNW of PORT LINCOLN


  Time     Wind        Temp  DP   Baro     Rain since   Rain past  Vis(m), Cloud(base in m), Weather
  local        km/h                         9am  last   hr   10m    
Mon 19:30  SSE 30/ 39  17.3 14.9  1016.9    0.0   0.0   0.0   0.0   ----- 
Mon 19:30  SSE 30/ 39  17.3 14.9  1016.9    0.0   0.0  ----   0.0   ----- 
Mon 20:00  SSE 30/ 39  16.8 15.0  1017.2    0.0   0.0   0.0   0.0   ----- 
Mon 20:00  SSE 30/ 39  16.8 15.0  1017.2    0.0   0.0  ----   0.0   ----- 
Mon 20:30   SE 26/ 33  16.3 15.2  1017.4    0.0   0.0   0.0   0.0   ----- 
Mon 20:30   SE 26/ 33  16.3 15.2  1017.4    0.0   0.0  ----   0.0   ----- 
Mon 21:00   SE 26/ 32  16.0 15.5  1017.3    0.0   0.0   0.0   0.0   ----- 
Mon 21:30   SE 20/ 24  15.7 15.7  1017.3    0.0   0.0   0.0   0.0   ----- 
Mon 22:00   SE 19/ 26  15.7 15.7  1017.2    0.0   0.0   0.0   0.0   ----- 
Mon 22:30   SE 19/ 24  15.5 15.5  1017.0    0.0   0.0   0.0   0.0   ----- 
Mon 23:00   SE 19/ 24  15.5 15.5  1017.0    0.0   0.0   0.0   0.0   ----- 
Mon 23:30   SE 17/ 20  15.3 15.3  1016.7    0.0   0.0   0.0   0.0   ----- 
Tue 00:00   SE 15/ 19  15.1 15.1  1016.4    0.0   0.0   0.0   0.0   ----- 
Tue 00:30  ESE 11/ 15  14.4 14.4  1016.3    0.0   0.0   0.0   0.0   ----- 
Tue 01:00  ESE 15/ 19  14.5 14.5  1015.8    0.0   0.0   0.0   0.0   ----- 

CULTANA (DEFENCE)

Site: 018229
Alt: 171 m
43km SW of PORT AUGUSTA


  Time     Wind        Temp  DP   Baro     Rain since   Rain past  Vis(m), Cloud(base in m), Weather
  local        km/h                         9am  last   hr   10m    
Mon 19:30    S 32/ 41  24.8  7.0  ------    0.0   0.0   0.0   0.0   ----- 
Mon 19:30    S 32/ 41  24.8  7.0  ------    0.0   0.0  ----   0.0   ----- 
Mon 20:00    S 30/ 39  24.4  7.5  ------    0.0   0.0   0.0   0.0   ----- 
Mon 20:00    S 30/ 39  24.4  7.5  ------    0.0   0.0  ----   0.0   ----- 
Mon 20:30    S 32/ 41  23.9  7.9  ------    0.0   0.0   0.0   0.0   ----- 
Mon 20:30    S 32/ 41  23.9  7.9  ------    0.0   0.0  ----   0.0   ----- 
Mon 21:00    S 30/ 41  23.4  8.3  ------    0.0   0.0   0.0   0.0   ----- 
Mon 21:30  SSW 32/ 41  22.9  8.2  ------    0.0   0.0   0.0   0.0   ----- 
Mon 22:00  SSW 24/ 33  22.5  8.6  ------    0.0   0.0   0.0   0.0   ----- 
Mon 22:30    S 28/ 37  22.1  8.2  ------    0.0   0.0   0.0   0.0   ----- 
Mon 23:00    S 32/ 37  21.8  9.3  ------    0.0   0.0   0.0   0.0   ----- 
Mon 23:30    S 26/ 32  21.4  9.6  ------    0.0   0.0   0.0   0.0   ----- 
Tue 00:00    S 30/ 37  21.0 10.2  ------    0.0   0.0   0.0   0.0   ----- 
Tue 00:30    S 26/ 33  20.4 10.8  ------    0.0   0.0   0.0   0.0   ----- 
Tue 01:00    S 24/ 30  20.0 11.0  ------    0.0   0.0   0.0   0.0   ----- 

CUMMINS AERO

Site: 018217
Alt: 60.1m
54km NNW of PORT LINCOLN


  Time     Wind        Temp  DP   Baro     Rain since   Rain past  Vis(m), Cloud(base in m), Weather
  local        km/h                         9am  last   hr   10m    
Mon 19:30   SE 26/ 33  21.1 11.2  1017.1    0.0   0.0   0.0   0.0   ----- 
Mon 19:30   SE 26/ 33  21.1 11.2  1017.1    0.0   0.0  ----   0.0   ----- 
Mon 20:00   SE 22/ 32  20.3 11.2  1017.4    0.0   0.0   0.0   0.0   ----- 
Mon 20:00   SE 22/ 32  20.3 11.2  1017.4    0.0   0.0  ----   0.0   ----- 
Mon 20:30   SE 15/ 22  18.8 11.1  1017.6    0.0   0.0   0.0   0.0   ----- 
Mon 20:30   SE 15/ 22  18.8 11.1  1017.6    0.0   0.0  ----   0.0   ----- 
Mon 21:00  SSE 15/ 22  17.9 12.1  1017.4    0.0   0.0   0.0   0.0   ----- 
Mon 21:30  SSE 13/ 20  17.3 12.4  1017.4    0.0   0.0   0.0   0.0   ----- 
Mon 22:00   SE 15/ 19  17.0 12.7  1017.2    0.0   0.0   0.0   0.0   ----- 
Mon 22:30   SE 15/ 20  16.7 13.0  1017.1    0.0   0.0   0.0   0.0   ----- 
Mon 23:00  ESE 11/ 15  16.5 13.0  1017.2    0.0   0.0   0.0   0.0   ----- 
Mon 23:30   SE 13/ 17  16.3 11.9  1016.8    0.0   0.0   0.0   0.0   ----- 
Tue 00:00   SE 13/ 20  16.1 11.9  1016.6    0.0   0.0   0.0   0.0   ----- 
Tue 00:30   SE 15/ 20  15.4 12.3  1016.6    0.0   0.0   0.0   0.0   ----- 
Tue 01:00  ESE 17/ 22  15.2 12.7  1016.2    0.0   0.0   0.0   0.0   ----- 

MINNIPA PIRSA

Site: 018195
Alt: 165.0m
160km ESE of CEDUNA


  Time     Wind        Temp  DP   Baro     Rain since   Rain past  Vis(m), Cloud(base in m), Weather
  local        km/h                         9am  last   hr   10m    
Mon 19:30   SE 32/ 39  23.8  4.7  1016.1   ----  ----  ----   0.0   ----- 
Mon 19:30   SE 32/ 39  23.8  4.7  1016.1   ----  ----  ----   0.0   ----- 
Mon 20:00   SE 30/ 37  22.8  4.8  1016.2   ----  ----  ----   0.0   ----- 
Mon 20:00   SE 30/ 37  22.8  4.8  1016.2   ----  ----  ----   0.0   ----- 
Mon 20:30   SE 24/ 35  21.8  5.7  1016.4   ----  ----  ----   0.0   ----- 
Mon 20:30   SE 24/ 35  21.8  5.7  1016.4   ----  ----  ----   0.0   ----- 
Mon 21:00   SE 24/ 30  20.8  6.4  1016.5   ----  ----  ----   0.0   ----- 
Mon 21:30   SE 20/ 28  19.7  7.1  1016.5   ----  ----  ----   0.0   ----- 
Mon 22:00   SE 20/ 30  19.0  7.1  1016.4   ----  ----  ----   0.0   ----- 
Mon 22:30  ESE 26/ 35  18.6  7.1  1016.2   ----  ----  ----   0.0   ----- 
Mon 23:00  ESE 24/ 33  18.1  7.2  1016.2   ----  ----  ----   0.0   ----- 
Mon 23:30   SE 24/ 32  17.3  7.9  1016.4   ----  ----  ----   0.0   ----- 
Tue 00:00   SE 22/ 32  16.8  8.5  1016.2   ----  ----  ----   0.0   ----- 
Tue 00:30   SE 19/ 24  15.9  8.9  1016.1   ----  ----  ----   0.0   ----- 
Tue 01:00   SE 15/ 20  15.4  9.3  1015.6   ----  ----  ----   0.0   ----- 

NEPTUNE ISLAND

Site: 018115
Alt: 32.0m
72km SSE of PORT LINCOLN


  Time     Wind        Temp  DP   Baro     Rain since   Rain past  Vis(m), Cloud(base in m), Weather
  local        km/h                         9am  last   hr   10m    
Mon 19:30    S 35/ 45  17.7----  1017.6   ----  ----  ----   0.0   ----- 
Mon 19:30    S 35/ 45  17.7----  1017.6   ----  ----  ----   0.0   ----- 
Mon 20:00    S 35/ 43  17.5----  1017.6   ----  ----  ----   0.0   ----- 
Mon 20:00    S 35/ 43  17.5----  1017.6   ----  ----  ----   0.0   ----- 
Mon 20:30  SSE 32/ 39  17.2----  1017.8   ----  ----  ----   0.0   ----- 
Mon 20:30  SSE 32/ 39  17.2----  1017.8   ----  ----  ----   0.0   ----- 
Mon 21:30  SSE 26/ 32  17.0----  1017.9   ----  ----  ----   0.0   ----- 
Mon 22:00   SE 28/ 32  16.8----  1018.0   ----  ----  ----   0.0   ----- 
Mon 22:30   SE 28/ 35  16.4----  1018.0   ----  ----  ----   0.0   ----- 
Mon 23:00   SE 28/ 33  16.2----  1017.9   ----  ----  ----   0.0   ----- 
Mon 23:30  ------/---  15.8----  1017.8   ----  ----  ----  ----   ----- 
Tue 00:00   SE 24/ 28  15.7----  1017.3   ----  ----  ----   0.0   ----- 
Tue 01:00  ------/---  15.5----  1016.6   ----  ----  ----  ----   ----- 

NORTH SHIELDS (PORT LINCOLN AWS)

Site: 018192
Alt: 8.5m
14km N of PORT LINCOLN


  Time     Wind        Temp  DP   Baro     Rain since   Rain past  Vis(m), Cloud(base in m), Weather
  local        km/h                         9am  last   hr   10m    
Mon 19:30   SE 24/ 28  20.2 12.7  1017.6    0.0   0.0   0.0   0.0   10000 
Mon 19:30   SE 24/ 28  20.2 12.7  1017.6    0.0   0.0  ----   0.0   10000 
Mon 20:00  SSE 20/ 26  19.4 13.1  1017.8    0.0   0.0   0.0   0.0   10000 
Mon 20:00  SSE 20/ 26  19.4 13.1  1017.8    0.0   0.0  ----   0.0   10000 
Mon 20:30  SSE 19/ 24  18.6 13.0  1018.1    0.0   0.0   0.0   0.0   10000 
Mon 20:30  SSE 19/ 24  18.6 13.0  1018.1    0.0   0.0  ----   0.0   10000 
Mon 21:00   SE 17/ 24  18.0 13.5  1018.1    0.0   0.0   0.0   0.0   10000 
Mon 21:30   SE 17/ 20  17.4 13.5  1018.0    0.0   0.0   0.0   0.0   10000 
Mon 22:00   SE 19/ 24  17.4 13.9  1017.8    0.0   0.0   0.0   0.0   10000 
Mon 22:30   SE 20/ 26  17.1 14.0  1017.8    0.0   0.0   0.0   0.0   10000 
Mon 23:00  ESE 17/ 24  16.7 13.8  1017.9    0.0   0.0   0.0   0.0   10000 
Mon 23:30  ESE 20/ 26  16.3 12.8  1017.5    0.0   0.0   0.0   0.0   10000 
Tue 00:00  ESE 17/ 22  15.9 12.3  1017.5    0.0   0.0   0.0   0.0   10000 
Tue 00:30  ESE 19/ 24  15.8 12.5  1017.4    0.0   0.0   0.0   0.0   10000 
Tue 01:00  ESE 17/ 22  15.4 12.2  1017.0    0.0   0.0   0.0   0.0   10000 

NULLARBOR

Site: 018106
Alt: 64.0m
193km E of EUCLA (WA)


  Time     Wind        Temp  DP   Baro     Rain since   Rain past  Vis(m), Cloud(base in m), Weather
  local        km/h                         9am  last   hr   10m    
Mon 19:30  ESE 32/ 41  20.4 13.6  1014.4    0.0   0.0   0.0   0.0   10000 
Mon 19:30  ESE 32/ 41  20.4 13.6  1014.4    0.0   0.0  ----   0.0   10000 
Mon 20:00  ESE 35/ 45  19.7 13.2  1014.4    0.0   0.0   0.0   0.0   10000 
Mon 20:00  ESE 35/ 45  19.7 13.2  1014.4    0.0   0.0  ----   0.0   10000 
Mon 20:30  ESE 28/ 35  18.7 14.6  1015.0    0.0   0.0   0.0   0.0   10000 
Mon 20:30  ESE 28/ 35  18.7 14.6  1015.0    0.0   0.0  ----   0.0   10000 
Mon 21:00   SE 26/ 33  17.9 15.3  1014.8    0.0   0.0   0.0   0.0   10000 
Mon 21:30   SE 24/ 32  17.5 15.7  1014.8    0.0   0.0   0.0   0.0   10000 
Mon 22:00  ESE 22/ 28  17.3 15.8  1014.5    0.0   0.0   0.0   0.0   10000 
Mon 22:30  ESE 20/ 26  17.1 16.6  1014.3    0.0   0.0   0.0   0.0   10000 
Mon 23:00  ESE 22/ 26  17.1 16.9  1014.3    0.0   0.0   0.0   0.0   10000 
Mon 23:30  ESE 20/ 26  17.0 16.8  1014.2    0.0   0.0   0.0   0.0   10000 
Tue 00:00  ESE 20/ 26  16.5 16.3  1013.6    0.0   0.0   0.0   0.0   10000 
Tue 00:30  ESE 19/ 24  16.6 16.4  1013.9    0.0   0.0   0.0   0.0   10000 
Tue 01:00  ESE 19/ 22  16.4 16.2  1013.2    0.0   0.0   0.0   0.0   10000 

PORT AUGUSTA AERO

Site: 018201
Alt: 14.0m
6km WSW of PORT AUGUSTA


  Time     Wind        Temp  DP   Baro     Rain since   Rain past  Vis(m), Cloud(base in m), Weather
  local        km/h                         9am  last   hr   10m    
Mon 19:30  SSW 20/ 30  27.1  6.5  1013.9    0.0   0.0   0.0   0.0   10000 
Mon 19:30  SSW 20/ 30  27.1  6.5  1013.9    0.0   0.0  ----   0.0   10000 
Mon 20:00   SW 20/ 26  26.0  8.0  1014.2    0.0   0.0   0.0   0.0   10000|SC2280 SC2700 BR3750 
Mon 20:00   SW 20/ 26  26.0  8.0  1014.2    0.0   0.0  ----   0.0   10000|SC2280 SC2700 BR3750 
Mon 20:30  SSW 20/ 30  25.7  8.7  1014.4    0.0   0.0   0.0   0.0   10000|SC2250 SC2610 
Mon 20:30  SSW 20/ 30  25.7  8.7  1014.4    0.0   0.0  ----   0.0   10000|SC2250 SC2610 
Mon 21:00  SSW 24/ 32  25.0  9.3  1014.2    0.0   0.0   0.0   0.0   10000 
Mon 21:30  SSW 20/ 28  24.7  9.8  1013.9    0.0   0.0   0.0   0.0   10000 
Mon 22:00  SSW 24/ 30  24.2  9.8  1014.0    0.0   0.0   0.0   0.0   10000 
Mon 22:30  SSW 19/ 24  23.9 10.2  1014.1    0.0   0.0   0.0   0.0   10000 
Mon 23:00  SSE 19/ 26  23.8 10.5  1014.1    0.0   0.0   0.0   0.0   10000 
Mon 23:30    S 19/ 24  22.9 11.3  1013.8    0.0   0.0   0.0   0.0   10000 
Tue 00:00  SSE 17/ 26  23.7 10.4  1013.4    0.0   0.0   0.0   0.0   10000 
Tue 00:30  SSE 28/ 35  23.7 10.4  1013.0    0.0   0.0   0.0   0.0   10000|SC2640 
Tue 01:00  SSE 28/ 35  23.8  9.8  1012.9    0.0   0.0   0.0   0.0   10000 

WHYALLA AERO

Site: 018120
Alt: 9.3m
5km WSW of WHYALLA


  Time     Wind        Temp  DP   Baro     Rain since   Rain past  Vis(m), Cloud(base in m), Weather
  local        km/h                         9am  last   hr   10m    
Mon 19:30  SSW 32/ 41  22.9 15.0  1014.5    0.0   0.0   0.0   0.0   10000 
Mon 19:30  SSW 32/ 41  22.9 15.0  1014.5    0.0   0.0  ----   0.0   10000 
Mon 20:00  SSW 30/ 41  23.0 12.9  1014.9    0.0   0.0   0.0   0.0   10000 
Mon 20:00  SSW 30/ 41  23.0 12.9  1014.9    0.0   0.0  ----   0.0   10000 
Mon 20:30    S 30/ 39  22.4 14.3  1014.9    0.0   0.0   0.0   0.0   10000 
Mon 20:30    S 30/ 39  22.4 14.3  1014.9    0.0   0.0  ----   0.0   10000 
Mon 21:00  SSW 28/ 35  22.2 14.6  1014.6    0.0   0.0   0.0   0.0   10000 
Mon 21:30  SSW 28/ 37  21.8 14.2  1014.7    0.0   0.0   0.0   0.0   10000 
Mon 22:00    S 32/ 43  21.9 14.3  1014.9    0.0   0.0   0.0   0.0   10000|SC2940 
Mon 22:30    S 30/ 39  21.6 13.5  1014.9    0.0   0.0   0.0   0.0   10000 
Mon 23:00    S 30/ 39  21.2 13.9  1014.8    0.0   0.0   0.0   0.0   10000|BR2970 
Mon 23:30    S 28/ 35  20.8 13.7  1014.6    0.0   0.0   0.0   0.0   10000|SC2970 
Tue 00:00    S 24/ 33  20.2 13.9  1014.8    0.0   0.0   0.0   0.0   10000 
Tue 00:30    S 24/ 30  20.0 14.1  1014.5    0.0   0.0   0.0   0.0   10000 
Tue 01:00    S 24/ 32  19.8 14.4  1014.3    0.0   0.0   0.0   0.0   10000 

WUDINNA AERO

Site: 018083
Alt: 86.4m
191km N of PORT LINCOLN


  Time     Wind        Temp  DP   Baro     Rain since   Rain past  Vis(m), Cloud(base in m), Weather
  local        km/h                         9am  last   hr   10m    
Mon 19:30  ESE 26/ 35  23.6  6.8  1015.8    0.0   0.0   0.0   0.0   ----- 
Mon 19:30  ESE 26/ 35  23.6  6.8  1015.8    0.0   0.0  ----   0.0   ----- 
Mon 20:00   SE 20/ 32  22.9  6.6  1016.2    0.0   0.0   0.0   0.0   ----- 
Mon 20:00   SE 20/ 32  22.9  6.6  1016.2    0.0   0.0  ----   0.0   ----- 
Mon 20:30   SE 20/ 32  21.8  7.6  1016.3    0.0   0.0   0.0   0.0   ----- 
Mon 20:30   SE 20/ 32  21.8  7.6  1016.3    0.0   0.0  ----   0.0   ----- 
Mon 21:00   SE 20/ 30  21.0  7.6  1016.2    0.0   0.0   0.0   0.0   ----- 
Mon 21:30  ESE 17/ 26  20.1  7.8  1016.4    0.0   0.0   0.0   0.0   ----- 
Mon 22:00  ESE 13/ 20  19.0  7.1  1016.3    0.0   0.0   0.0   0.0   ----- 
Mon 22:30    E 13/ 19  18.3  8.0  1016.3    0.0   0.0   0.0   0.0   ----- 
Mon 23:00  ESE 13/ 19  17.8  8.9  1016.1    0.0   0.0   0.0   0.0   ----- 
Mon 23:30   SE 15/ 20  17.2  9.6  1016.3    0.0   0.0   0.0   0.0   ----- 
Tue 00:00   SE 13/ 17  16.8 10.0  1016.0    0.0   0.0   0.0   0.0   ----- 
Tue 00:30   SE 13/ 19  16.1 10.4  1015.6    0.0   0.0   0.0   0.0   ----- 
Tue 01:00  ESE 11/ 13  15.3 10.3  1015.5    0.0   0.0   0.0   0.0   -----